sensor_id;sensor_type;location;lat;lon;timestamp;pressure;altitude;pressure_sealevel;temperature;humidity
41886;BME280;27567;43.084;25.616;2023-04-26T00:02:24;97241.13;;;9.35;100.00
41886;BME280;27567;43.084;25.616;2023-04-26T00:05:10;97239.97;;;9.49;100.00
41886;BME280;27567;43.084;25.616;2023-04-26T00:07:54;97243.44;;;9.50;100.00
41886;BME280;27567;43.084;25.616;2023-04-26T00:10:38;97233.69;;;9.37;100.00
41886;BME280;27567;43.084;25.616;2023-04-26T00:13:23;97236.63;;;9.28;100.00
41886;BME280;27567;43.084;25.616;2023-04-26T00:16:07;97236.94;;;9.20;100.00
41886;BME280;27567;43.084;25.616;2023-04-26T00:18:51;97232.03;;;9.17;100.00
41886;BME280;27567;43.084;25.616;2023-04-26T00:21:35;97222.53;;;9.21;100.00
41886;BME280;27567;43.084;25.616;2023-04-26T00:24:20;97223.91;;;9.05;100.00
41886;BME280;27567;43.084;25.616;2023-04-26T00:27:03;97220.56;;;9.10;100.00
41886;BME280;27567;43.084;25.616;2023-04-26T00:29:51;97229.66;;;9.27;100.00
41886;BME280;27567;43.084;25.616;2023-04-26T00:32:35;97227.47;;;9.17;100.00
41886;BME280;27567;43.084;25.616;2023-04-26T00:35:20;97220.81;;;9.27;100.00
41886;BME280;27567;43.084;25.616;2023-04-26T00:38:04;97218.50;;;9.30;100.00
41886;BME280;27567;43.084;25.616;2023-04-26T00:40:49;97215.78;;;9.37;100.00
41886;BME280;27567;43.084;25.616;2023-04-26T00:43:33;97211.84;;;9.40;100.00
41886;BME280;27567;43.084;25.616;2023-04-26T00:46:17;97212.97;;;9.51;100.00
41886;BME280;27567;43.084;25.616;2023-04-26T00:49:01;97213.66;;;9.46;100.00
41886;BME280;27567;43.084;25.616;2023-04-26T00:51:46;97203.06;;;9.32;100.00
41886;BME280;27567;43.084;25.616;2023-04-26T00:54:30;97208.59;;;9.56;100.00
41886;BME280;27567;43.084;25.616;2023-04-26T00:57:15;97217.53;;;9.50;100.00
41886;BME280;27567;43.084;25.616;2023-04-26T00:59:59;97205.38;;;9.47;100.00
41886;BME280;27567;43.084;25.616;2023-04-26T01:02:43;97199.22;;;9.66;100.00
41886;BME280;27567;43.084;25.616;2023-04-26T01:05:27;97197.59;;;9.65;100.00
41886;BME280;27567;43.084;25.616;2023-04-26T01:08:14;97199.91;;;9.61;100.00
41886;BME280;27567;43.084;25.616;2023-04-26T01:11:03;97200.13;;;9.59;100.00
41886;BME280;27567;43.084;25.616;2023-04-26T01:13:49;97192.75;;;9.55;100.00
41886;BME280;27567;43.084;25.616;2023-04-26T01:16:34;97186.91;;;9.46;100.00
41886;BME280;27567;43.084;25.616;2023-04-26T01:19:18;97195.28;;;9.50;100.00
41886;BME280;27567;43.084;25.616;2023-04-26T01:22:02;97200.78;;;9.55;100.00
41886;BME280;27567;43.084;25.616;2023-04-26T01:24:50;97188.81;;;9.39;100.00
41886;BME280;27567;43.084;25.616;2023-04-26T01:27:37;97196.41;;;9.42;100.00
41886;BME280;27567;43.084;25.616;2023-04-26T01:30:22;97194.84;;;9.53;100.00
41886;BME280;27567;43.084;25.616;2023-04-26T01:33:06;97189.69;;;9.51;100.00
41886;BME280;27567;43.084;25.616;2023-04-26T01:35:50;97181.53;;;9.46;100.00
41886;BME280;27567;43.084;25.616;2023-04-26T01:38:34;97187.69;;;9.46;100.00
41886;BME280;27567;43.084;25.616;2023-04-26T01:41:17;97179.91;;;9.45;100.00
41886;BME280;27567;43.084;25.616;2023-04-26T01:44:01;97179.38;;;9.36;100.00
41886;BME280;27567;43.084;25.616;2023-04-26T01:46:45;97183.16;;;9.28;100.00
41886;BME280;27567;43.084;25.616;2023-04-26T01:49:29;97175.97;;;9.47;100.00
41886;BME280;27567;43.084;25.616;2023-04-26T01:52:14;97170.53;;;9.36;100.00
41886;BME280;27567;43.084;25.616;2023-04-26T01:54:58;97164.66;;;9.27;100.00
41886;BME280;27567;43.084;25.616;2023-04-26T01:57:42;97165.34;;;9.41;100.00
41886;BME280;27567;43.084;25.616;2023-04-26T02:00:28;97161.25;;;9.38;100.00
41886;BME280;27567;43.084;25.616;2023-04-26T02:03:12;97149.41;;;9.27;100.00
41886;BME280;27567;43.084;25.616;2023-04-26T02:05:56;97165.09;;;9.42;100.00
41886;BME280;27567;43.084;25.616;2023-04-26T02:08:41;97153.59;;;9.42;100.00
41886;BME280;27567;43.084;25.616;2023-04-26T02:11:25;97144.75;;;9.41;100.00
41886;BME280;27567;43.084;25.616;2023-04-26T02:14:09;97140.06;;;9.37;100.00
41886;BME280;27567;43.084;25.616;2023-04-26T02:16:54;97144.22;;;9.32;100.00
41886;BME280;27567;43.084;25.616;2023-04-26T02:19:39;97146.19;;;9.25;100.00
41886;BME280;27567;43.084;25.616;2023-04-26T02:22:26;97147.22;;;9.24;100.00
41886;BME280;27567;43.084;25.616;2023-04-26T02:25:10;97141.72;;;9.38;100.00
41886;BME280;27567;43.084;25.616;2023-04-26T02:27:54;97138.22;;;9.37;100.00
41886;BME280;27567;43.084;25.616;2023-04-26T02:30:39;97137.31;;;9.25;100.00
41886;BME280;27567;43.084;25.616;2023-04-26T02:33:23;97145.50;;;9.30;100.00
41886;BME280;27567;43.084;25.616;2023-04-26T02:36:07;97142.81;;;9.30;100.00
41886;BME280;27567;43.084;25.616;2023-04-26T02:38:52;97139.63;;;9.21;100.00
41886;BME280;27567;43.084;25.616;2023-04-26T02:41:36;97147.66;;;9.21;100.00
41886;BME280;27567;43.084;25.616;2023-04-26T02:44:19;97137.31;;;9.25;100.00
41886;BME280;27567;43.084;25.616;2023-04-26T02:47:03;97149.72;;;9.19;100.00
41886;BME280;27567;43.084;25.616;2023-04-26T02:49:47;97150.25;;;9.09;100.00
41886;BME280;27567;43.084;25.616;2023-04-26T02:52:32;97153.53;;;9.11;100.00
41886;BME280;27567;43.084;25.616;2023-04-26T02:55:16;97150.31;;;9.21;100.00
41886;BME280;27567;43.084;25.616;2023-04-26T02:58:00;97156.84;;;9.07;100.00
41886;BME280;27567;43.084;25.616;2023-04-26T03:00:45;97148.59;;;9.08;100.00
41886;BME280;27567;43.084;25.616;2023-04-26T03:03:31;97151.34;;;9.01;100.00
41886;BME280;27567;43.084;25.616;2023-04-26T03:06:15;97162.31;;;8.93;100.00
41886;BME280;27567;43.084;25.616;2023-04-26T03:08:59;97157.25;;;8.85;100.00
41886;BME280;27567;43.084;25.616;2023-04-26T03:11:43;97152.00;;;8.97;100.00
41886;BME280;27567;43.084;25.616;2023-04-26T03:14:27;97157.63;;;8.89;100.00
41886;BME280;27567;43.084;25.616;2023-04-26T03:17:11;97161.00;;;8.77;100.00
41886;BME280;27567;43.084;25.616;2023-04-26T03:19:55;97158.41;;;8.70;100.00
41886;BME280;27567;43.084;25.616;2023-04-26T03:22:39;97166.41;;;8.70;100.00
41886;BME280;27567;43.084;25.616;2023-04-26T03:25:23;97183.66;;;8.75;100.00
41886;BME280;27567;43.084;25.616;2023-04-26T03:28:07;97184.03;;;8.78;100.00
41886;BME280;27567;43.084;25.616;2023-04-26T03:30:51;97195.44;;;8.92;100.00
41886;BME280;27567;43.084;25.616;2023-04-26T03:33:35;97190.69;;;8.94;100.00
41886;BME280;27567;43.084;25.616;2023-04-26T03:36:19;97195.81;;;8.96;100.00
41886;BME280;27567;43.084;25.616;2023-04-26T03:39:03;97197.97;;;9.06;100.00
41886;BME280;27567;43.084;25.616;2023-04-26T03:41:49;97187.44;;;9.11;100.00
41886;BME280;27567;43.084;25.616;2023-04-26T03:44:33;97198.44;;;9.02;100.00
41886;BME280;27567;43.084;25.616;2023-04-26T03:47:17;97200.03;;;9.03;100.00
41886;BME280;27567;43.084;25.616;2023-04-26T03:50:01;97200.13;;;9.15;100.00
41886;BME280;27567;43.084;25.616;2023-04-26T03:52:46;97207.78;;;9.12;100.00
41886;BME280;27567;43.084;25.616;2023-04-26T03:55:30;97213.41;;;9.29;100.00
41886;BME280;27567;43.084;25.616;2023-04-26T03:58:14;97211.41;;;9.43;100.00
41886;BME280;27567;43.084;25.616;2023-04-26T04:00:58;97215.34;;;9.40;100.00
41886;BME280;27567;43.084;25.616;2023-04-26T04:03:41;97216.47;;;9.07;100.00
41886;BME280;27567;43.084;25.616;2023-04-26T04:06:25;97214.44;;;9.28;100.00
41886;BME280;27567;43.084;25.616;2023-04-26T04:09:09;97218.47;;;9.56;100.00
41886;BME280;27567;43.084;25.616;2023-04-26T04:11:53;97216.91;;;9.67;100.00
41886;BME280;27567;43.084;25.616;2023-04-26T04:14:37;97213.06;;;9.62;100.00
41886;BME280;27567;43.084;25.616;2023-04-26T04:17:50;97215.56;;;9.95;100.00
41886;BME280;27567;43.084;25.616;2023-04-26T04:20:34;97214.84;;;10.18;100.00
41886;BME280;27567;43.084;25.616;2023-04-26T04:23:19;97212.34;;;10.04;100.00
41886;BME280;27567;43.084;25.616;2023-04-26T04:26:03;97214.53;;;10.57;100.00
41886;BME280;27567;43.084;25.616;2023-04-26T04:28:47;97212.63;;;10.76;100.00
41886;BME280;27567;43.084;25.616;2023-04-26T04:31:31;97208.28;;;10.32;100.00
41886;BME280;27567;43.084;25.616;2023-04-26T04:34:15;97211.97;;;10.19;100.00
41886;BME280;27567;43.084;25.616;2023-04-26T04:36:59;97207.78;;;10.54;100.00
41886;BME280;27567;43.084;25.616;2023-04-26T04:39:43;97217.63;;;10.96;100.00
41886;BME280;27567;43.084;25.616;2023-04-26T04:42:27;97214.69;;;10.62;100.00
41886;BME280;27567;43.084;25.616;2023-04-26T04:45:11;97218.47;;;10.85;100.00
41886;BME280;27567;43.084;25.616;2023-04-26T04:47:55;97227.69;;;11.48;100.00
41886;BME280;27567;43.084;25.616;2023-04-26T04:50:39;97228.88;;;11.17;100.00
41886;BME280;27567;43.084;25.616;2023-04-26T04:53:25;97226.88;;;11.12;100.00
41886;BME280;27567;43.084;25.616;2023-04-26T04:56:09;97228.63;;;11.18;100.00
41886;BME280;27567;43.084;25.616;2023-04-26T04:58:53;97221.50;;;11.36;100.00
41886;BME280;27567;43.084;25.616;2023-04-26T05:01:37;97226.41;;;11.27;100.00
41886;BME280;27567;43.084;25.616;2023-04-26T05:04:21;97221.88;;;11.39;100.00
41886;BME280;27567;43.084;25.616;2023-04-26T05:07:05;97220.81;;;11.40;100.00
41886;BME280;27567;43.084;25.616;2023-04-26T05:09:49;97212.66;;;11.00;100.00
41886;BME280;27567;43.084;25.616;2023-04-26T05:12:33;97206.91;;;10.96;100.00
41886;BME280;27567;43.084;25.616;2023-04-26T05:15:18;97210.88;;;10.81;100.00
41886;BME280;27567;43.084;25.616;2023-04-26T05:18:02;97208.50;;;10.61;100.00
41886;BME280;27567;43.084;25.616;2023-04-26T05:20:47;97203.09;;;10.49;100.00
41886;BME280;27567;43.084;25.616;2023-04-26T05:23:30;97199.50;;;10.56;100.00
41886;BME280;27567;43.084;25.616;2023-04-26T05:26:16;97201.63;;;10.65;100.00
41886;BME280;27567;43.084;25.616;2023-04-26T05:29:00;97205.34;;;10.64;100.00
41886;BME280;27567;43.084;25.616;2023-04-26T05:31:44;97217.00;;;10.58;100.00
41886;BME280;27567;43.084;25.616;2023-04-26T05:34:28;97205.88;;;10.97;100.00
41886;BME280;27567;43.084;25.616;2023-04-26T05:37:12;97206.38;;;11.18;100.00
41886;BME280;27567;43.084;25.616;2023-04-26T05:39:56;97200.88;;;11.12;100.00
41886;BME280;27567;43.084;25.616;2023-04-26T05:42:40;97201.66;;;11.37;100.00
41886;BME280;27567;43.084;25.616;2023-04-26T05:45:24;97210.28;;;11.51;100.00
41886;BME280;27567;43.084;25.616;2023-04-26T05:48:08;97204.94;;;11.51;100.00
41886;BME280;27567;43.084;25.616;2023-04-26T05:50:52;97208.88;;;11.72;100.00
41886;BME280;27567;43.084;25.616;2023-04-26T05:53:36;97202.22;;;12.15;100.00
41886;BME280;27567;43.084;25.616;2023-04-26T05:56:20;97204.97;;;12.32;100.00
41886;BME280;27567;43.084;25.616;2023-04-26T05:59:04;97206.41;;;12.52;100.00
41886;BME280;27567;43.084;25.616;2023-04-26T06:01:48;97196.59;;;12.46;100.00
41886;BME280;27567;43.084;25.616;2023-04-26T06:04:32;97207.69;;;12.50;100.00
41886;BME280;27567;43.084;25.616;2023-04-26T06:07:16;97195.06;;;12.50;100.00
41886;BME280;27567;43.084;25.616;2023-04-26T06:10:00;97204.25;;;12.37;100.00
41886;BME280;27567;43.084;25.616;2023-04-26T06:12:45;97207.31;;;12.29;100.00
41886;BME280;27567;43.084;25.616;2023-04-26T06:15:30;97196.38;;;12.47;100.00
41886;BME280;27567;43.084;25.616;2023-04-26T06:18:14;97207.97;;;12.65;100.00
41886;BME280;27567;43.084;25.616;2023-04-26T06:20:58;97197.22;;;12.82;100.00
41886;BME280;27567;43.084;25.616;2023-04-26T06:23:42;97202.66;;;13.04;100.00
41886;BME280;27567;43.084;25.616;2023-04-26T06:26:26;97199.91;;;12.99;100.00
41886;BME280;27567;43.084;25.616;2023-04-26T06:29:10;97198.78;;;12.95;100.00
41886;BME280;27567;43.084;25.616;2023-04-26T06:31:54;97199.00;;;13.11;100.00
41886;BME280;27567;43.084;25.616;2023-04-26T06:34:38;97202.75;;;13.44;100.00
41886;BME280;27567;43.084;25.616;2023-04-26T06:37:22;97216.44;;;13.42;100.00
41886;BME280;27567;43.084;25.616;2023-04-26T06:40:06;97210.63;;;13.33;100.00
41886;BME280;27567;43.084;25.616;2023-04-26T06:42:50;97212.53;;;13.16;100.00
41886;BME280;27567;43.084;25.616;2023-04-26T06:45:34;97208.38;;;13.81;100.00
41886;BME280;27567;43.084;25.616;2023-04-26T06:48:19;97215.84;;;14.24;100.00
41886;BME280;27567;43.084;25.616;2023-04-26T06:51:05;97220.69;;;14.49;100.00
41886;BME280;27567;43.084;25.616;2023-04-26T06:53:49;97224.72;;;14.47;100.00
41886;BME280;27567;43.084;25.616;2023-04-26T06:56:35;97236.00;;;14.16;100.00
41886;BME280;27567;43.084;25.616;2023-04-26T06:59:18;97237.50;;;14.34;100.00
41886;BME280;27567;43.084;25.616;2023-04-26T07:02:02;97236.16;;;14.09;100.00
41886;BME280;27567;43.084;25.616;2023-04-26T07:04:46;97235.03;;;13.83;100.00
41886;BME280;27567;43.084;25.616;2023-04-26T07:07:30;97226.78;;;14.39;100.00
41886;BME280;27567;43.084;25.616;2023-04-26T07:10:14;97231.31;;;14.34;100.00
41886;BME280;27567;43.084;25.616;2023-04-26T07:12:59;97240.75;;;14.31;100.00
41886;BME280;27567;43.084;25.616;2023-04-26T07:15:43;97236.78;;;14.39;100.00
41886;BME280;27567;43.084;25.616;2023-04-26T07:18:27;97240.03;;;14.19;100.00
41886;BME280;27567;43.084;25.616;2023-04-26T07:21:11;97240.22;;;13.67;100.00
41886;BME280;27567;43.084;25.616;2023-04-26T07:23:55;97234.75;;;13.62;100.00
41886;BME280;27567;43.084;25.616;2023-04-26T07:26:39;97229.81;;;14.43;100.00
41886;BME280;27567;43.084;25.616;2023-04-26T07:29:24;97240.06;;;15.01;100.00
41886;BME280;27567;43.084;25.616;2023-04-26T07:32:08;97239.91;;;14.58;100.00
41886;BME280;27567;43.084;25.616;2023-04-26T07:35:01;97242.00;;;15.43;100.00
41886;BME280;27567;43.084;25.616;2023-04-26T07:37:52;97238.22;;;14.24;100.00
41886;BME280;27567;43.084;25.616;2023-04-26T07:40:42;97241.38;;;14.16;100.00
41886;BME280;27567;43.084;25.616;2023-04-26T07:43:26;97249.69;;;13.70;100.00
41886;BME280;27567;43.084;25.616;2023-04-26T07:46:10;97255.44;;;13.79;100.00
41886;BME280;27567;43.084;25.616;2023-04-26T07:48:54;97247.75;;;13.88;100.00
41886;BME280;27567;43.084;25.616;2023-04-26T07:51:39;97247.19;;;14.30;100.00
41886;BME280;27567;43.084;25.616;2023-04-26T07:54:24;97249.06;;;14.30;100.00
41886;BME280;27567;43.084;25.616;2023-04-26T07:57:08;97256.00;;;14.48;100.00
41886;BME280;27567;43.084;25.616;2023-04-26T07:59:52;97248.38;;;14.67;100.00
41886;BME280;27567;43.084;25.616;2023-04-26T08:02:36;97252.78;;;15.00;100.00
41886;BME280;27567;43.084;25.616;2023-04-26T08:05:20;97250.50;;;15.62;100.00
41886;BME280;27567;43.084;25.616;2023-04-26T08:08:04;97255.09;;;15.62;100.00
41886;BME280;27567;43.084;25.616;2023-04-26T08:10:48;97251.59;;;14.91;100.00
41886;BME280;27567;43.084;25.616;2023-04-26T08:13:33;97262.34;;;14.36;100.00
41886;BME280;27567;43.084;25.616;2023-04-26T08:16:17;97258.13;;;14.18;100.00
41886;BME280;27567;43.084;25.616;2023-04-26T08:19:01;97241.69;;;14.47;100.00
41886;BME280;27567;43.084;25.616;2023-04-26T08:21:46;97250.34;;;14.71;100.00
41886;BME280;27567;43.084;25.616;2023-04-26T08:24:30;97236.41;;;15.12;100.00
41886;BME280;27567;43.084;25.616;2023-04-26T08:27:14;97243.75;;;16.13;100.00
41886;BME280;27567;43.084;25.616;2023-04-26T08:29:59;97236.28;;;16.46;100.00
41886;BME280;27567;43.084;25.616;2023-04-26T08:32:43;97239.91;;;15.51;100.00
41886;BME280;27567;43.084;25.616;2023-04-26T08:35:26;97238.63;;;14.88;100.00
41886;BME280;27567;43.084;25.616;2023-04-26T08:38:10;97238.47;;;14.72;100.00
41886;BME280;27567;43.084;25.616;2023-04-26T08:40:57;97256.03;;;14.75;100.00
41886;BME280;27567;43.084;25.616;2023-04-26T08:43:41;97251.66;;;14.19;100.00
41886;BME280;27567;43.084;25.616;2023-04-26T08:46:28;97248.13;;;13.74;100.00
41886;BME280;27567;43.084;25.616;2023-04-26T08:49:38;97247.63;;;14.00;100.00
41886;BME280;27567;43.084;25.616;2023-04-26T08:52:26;97246.19;;;14.91;100.00
41886;BME280;27567;43.084;25.616;2023-04-26T08:55:11;97234.72;;;14.73;100.00
41886;BME280;27567;43.084;25.616;2023-04-26T08:57:59;97252.47;;;14.47;100.00
41886;BME280;27567;43.084;25.616;2023-04-26T09:00:44;97249.06;;;14.57;100.00
41886;BME280;27567;43.084;25.616;2023-04-26T09:03:29;97243.75;;;15.60;100.00
41886;BME280;27567;43.084;25.616;2023-04-26T09:06:14;97245.25;;;14.75;100.00
41886;BME280;27567;43.084;25.616;2023-04-26T09:09:01;97235.69;;;15.70;100.00
41886;BME280;27567;43.084;25.616;2023-04-26T09:11:55;97242.16;;;15.69;100.00
41886;BME280;27567;43.084;25.616;2023-04-26T09:14:39;97243.06;;;15.37;100.00
41886;BME280;27567;43.084;25.616;2023-04-26T09:17:30;97241.03;;;14.84;100.00
41886;BME280;27567;43.084;25.616;2023-04-26T09:20:24;97241.75;;;15.07;100.00
41886;BME280;27567;43.084;25.616;2023-04-26T09:23:09;97230.16;;;15.92;100.00
41886;BME280;27567;43.084;25.616;2023-04-26T09:25:53;97236.72;;;16.12;100.00
41886;BME280;27567;43.084;25.616;2023-04-26T09:28:37;97232.28;;;16.70;100.00
41886;BME280;27567;43.084;25.616;2023-04-26T09:34:25;97242.03;;;15.48;100.00
41886;BME280;27567;43.084;25.616;2023-04-26T09:37:10;97233.19;;;15.21;100.00
41886;BME280;27567;43.084;25.616;2023-04-26T09:39:56;97242.47;;;14.97;100.00
41886;BME280;27567;43.084;25.616;2023-04-26T09:42:40;97234.53;;;15.18;100.00
41886;BME280;27567;43.084;25.616;2023-04-26T09:45:25;97235.97;;;15.69;100.00
41886;BME280;27567;43.084;25.616;2023-04-26T09:48:17;97236.75;;;15.64;100.00
41886;BME280;27567;43.084;25.616;2023-04-26T09:53:48;97219.31;;;15.39;98.44
41886;BME280;27567;43.084;25.616;2023-04-26T09:56:32;97225.81;;;15.91;100.00
41886;BME280;27567;43.084;25.616;2023-04-26T09:59:16;97223.22;;;15.59;100.00
41886;BME280;27567;43.084;25.616;2023-04-26T10:02:00;97224.59;;;16.25;94.50
41886;BME280;27567;43.084;25.616;2023-04-26T10:04:46;97229.78;;;15.78;96.20
41886;BME280;27567;43.084;25.616;2023-04-26T10:07:32;97221.66;;;15.25;99.07
41886;BME280;27567;43.084;25.616;2023-04-26T10:10:17;97218.28;;;15.93;100.00
41886;BME280;27567;43.084;25.616;2023-04-26T10:13:01;97222.28;;;16.91;91.19
41886;BME280;27567;43.084;25.616;2023-04-26T10:15:47;97201.91;;;18.37;68.49
41886;BME280;27567;43.084;25.616;2023-04-26T10:18:31;97209.72;;;19.23;66.33
41886;BME280;27567;43.084;25.616;2023-04-26T10:21:20;97207.78;;;17.99;73.84
41886;BME280;27567;43.084;25.616;2023-04-26T10:24:05;97197.88;;;18.29;72.14
41886;BME280;27567;43.084;25.616;2023-04-26T10:26:52;97205.47;;;19.41;70.79
41886;BME280;27567;43.084;25.616;2023-04-26T10:35:36;97207.66;;;20.75;58.66
41886;BME280;27567;43.084;25.616;2023-04-26T10:38:20;97183.59;;;23.46;47.27
41886;BME280;27567;43.084;25.616;2023-04-26T10:41:30;97210.00;;;22.59;47.84
41886;BME280;27567;43.084;25.616;2023-04-26T10:47:32;97211.16;;;19.45;58.40
41886;BME280;27567;43.084;25.616;2023-04-26T10:50:17;97205.44;;;20.19;54.27
41886;BME280;27567;43.084;25.616;2023-04-26T10:55:48;97203.47;;;20.44;55.09
41886;BME280;27567;43.084;25.616;2023-04-26T10:58:33;97203.16;;;20.65;55.48
41886;BME280;27567;43.084;25.616;2023-04-26T11:01:17;97187.78;;;20.93;55.70
41886;BME280;27567;43.084;25.616;2023-04-26T11:04:11;97192.22;;;20.70;56.54
41886;BME280;27567;43.084;25.616;2023-04-26T11:06:55;97192.34;;;20.21;57.98
41886;BME280;27567;43.084;25.616;2023-04-26T11:09:47;97189.16;;;21.24;57.22
41886;BME280;27567;43.084;25.616;2023-04-26T11:12:32;97198.69;;;20.55;60.89
41886;BME280;27567;43.084;25.616;2023-04-26T11:15:16;97189.66;;;19.97;60.27
41886;BME280;27567;43.084;25.616;2023-04-26T11:18:04;97206.19;;;20.01;60.12
41886;BME280;27567;43.084;25.616;2023-04-26T11:20:48;97200.44;;;17.94;63.77
41886;BME280;27567;43.084;25.616;2023-04-26T11:23:32;97206.16;;;18.03;69.67
41886;BME280;27567;43.084;25.616;2023-04-26T11:26:15;97208.38;;;17.75;77.00
41886;BME280;27567;43.084;25.616;2023-04-26T11:29:00;97212.53;;;17.31;85.34
41886;BME280;27567;43.084;25.616;2023-04-26T11:31:50;97199.41;;;18.85;73.02
41886;BME280;27567;43.084;25.616;2023-04-26T11:34:35;97217.25;;;18.97;73.92
41886;BME280;27567;43.084;25.616;2023-04-26T11:37:20;97200.84;;;17.56;81.24
41886;BME280;27567;43.084;25.616;2023-04-26T11:40:05;97213.38;;;17.01;97.71
41886;BME280;27567;43.084;25.616;2023-04-26T11:42:53;97206.03;;;17.42;95.37
41886;BME280;27567;43.084;25.616;2023-04-26T11:45:37;97204.38;;;16.48;100.00
41886;BME280;27567;43.084;25.616;2023-04-26T11:48:21;97209.97;;;16.16;100.00
41886;BME280;27567;43.084;25.616;2023-04-26T11:51:07;97226.38;;;15.93;100.00
41886;BME280;27567;43.084;25.616;2023-04-26T11:53:51;97202.19;;;16.35;100.00
41886;BME280;27567;43.084;25.616;2023-04-26T11:56:37;97200.09;;;16.99;94.72
41886;BME280;27567;43.084;25.616;2023-04-26T11:59:26;97206.00;;;16.44;98.85
41886;BME280;27567;43.084;25.616;2023-04-26T12:02:12;97211.88;;;16.20;100.00
41886;BME280;27567;43.084;25.616;2023-04-26T12:04:59;97215.31;;;16.00;100.00
41886;BME280;27567;43.084;25.616;2023-04-26T12:07:54;97218.59;;;16.07;100.00
41886;BME280;27567;43.084;25.616;2023-04-26T12:10:39;97204.88;;;15.71;100.00
41886;BME280;27567;43.084;25.616;2023-04-26T12:13:23;97202.16;;;15.66;100.00
41886;BME280;27567;43.084;25.616;2023-04-26T12:16:08;97205.81;;;15.87;100.00
41886;BME280;27567;43.084;25.616;2023-04-26T12:18:53;97211.34;;;16.29;100.00
41886;BME280;27567;43.084;25.616;2023-04-26T12:21:40;97212.00;;;16.72;100.00
41886;BME280;27567;43.084;25.616;2023-04-26T12:24:29;97206.81;;;16.50;100.00
41886;BME280;27567;43.084;25.616;2023-04-26T12:27:20;97209.81;;;17.36;100.00
41886;BME280;27567;43.084;25.616;2023-04-26T12:30:05;97227.41;;;17.34;100.00
41886;BME280;27567;43.084;25.616;2023-04-26T12:32:50;97217.41;;;16.82;100.00
41886;BME280;27567;43.084;25.616;2023-04-26T12:35:34;97216.31;;;16.89;100.00
41886;BME280;27567;43.084;25.616;2023-04-26T12:38:18;97206.41;;;18.01;100.00
41886;BME280;27567;43.084;25.616;2023-04-26T12:41:02;97193.59;;;18.62;92.16
41886;BME280;27567;43.084;25.616;2023-04-26T12:43:46;97205.00;;;18.65;84.33
41886;BME280;27567;43.084;25.616;2023-04-26T12:46:31;97202.78;;;18.27;92.02
41886;BME280;27567;43.084;25.616;2023-04-26T12:49:14;97203.66;;;18.57;81.30
41886;BME280;27567;43.084;25.616;2023-04-26T12:51:58;97211.81;;;18.12;89.61
41886;BME280;27567;43.084;25.616;2023-04-26T12:54:42;97229.06;;;16.98;92.12
41886;BME280;27567;43.084;25.616;2023-04-26T12:57:27;97208.88;;;18.88;83.45
41886;BME280;27567;43.084;25.616;2023-04-26T13:00:13;97205.94;;;18.84;82.44
41886;BME280;27567;43.084;25.616;2023-04-26T13:02:57;97200.22;;;19.50;79.35
41886;BME280;27567;43.084;25.616;2023-04-26T13:05:41;97205.69;;;18.41;79.54
41886;BME280;27567;43.084;25.616;2023-04-26T13:08:25;97209.19;;;18.41;75.20
41886;BME280;27567;43.084;25.616;2023-04-26T13:11:09;97213.84;;;17.60;82.77
41886;BME280;27567;43.084;25.616;2023-04-26T13:13:53;97202.75;;;18.72;80.22
41886;BME280;27567;43.084;25.616;2023-04-26T13:16:37;97203.81;;;18.31;79.63
41886;BME280;27567;43.084;25.616;2023-04-26T13:19:26;97213.63;;;16.89;97.59
41886;BME280;27567;43.084;25.616;2023-04-26T13:22:10;97206.59;;;17.19;93.92
41886;BME280;27567;43.084;25.616;2023-04-26T13:24:54;97221.44;;;16.54;100.00
41886;BME280;27567;43.084;25.616;2023-04-26T13:27:38;97235.53;;;15.44;100.00
41886;BME280;27567;43.084;25.616;2023-04-26T13:30:22;97219.00;;;15.36;100.00
41886;BME280;27567;43.084;25.616;2023-04-26T13:33:06;97230.25;;;15.65;100.00
41886;BME280;27567;43.084;25.616;2023-04-26T13:35:50;97228.84;;;16.00;100.00
41886;BME280;27567;43.084;25.616;2023-04-26T13:38:34;97233.31;;;16.53;100.00
41886;BME280;27567;43.084;25.616;2023-04-26T13:41:18;97235.84;;;16.96;100.00
41886;BME280;27567;43.084;25.616;2023-04-26T13:44:03;97215.25;;;17.41;87.93
41886;BME280;27567;43.084;25.616;2023-04-26T13:46:47;97236.13;;;17.05;93.43
41886;BME280;27567;43.084;25.616;2023-04-26T13:49:31;97227.41;;;17.34;94.08
41886;BME280;27567;43.084;25.616;2023-04-26T13:52:15;97222.56;;;17.31;93.19
41886;BME280;27567;43.084;25.616;2023-04-26T13:54:59;97232.28;;;16.90;96.63
41886;BME280;27567;43.084;25.616;2023-04-26T13:57:43;97233.34;;;16.63;100.00
41886;BME280;27567;43.084;25.616;2023-04-26T14:00:27;97235.66;;;16.13;100.00
41886;BME280;27567;43.084;25.616;2023-04-26T14:03:11;97228.09;;;16.26;100.00
41886;BME280;27567;43.084;25.616;2023-04-26T14:05:55;97234.59;;;16.19;100.00
41886;BME280;27567;43.084;25.616;2023-04-26T14:08:39;97237.44;;;15.92;100.00
41886;BME280;27567;43.084;25.616;2023-04-26T14:11:23;97235.50;;;15.39;100.00
41886;BME280;27567;43.084;25.616;2023-04-26T14:14:08;97230.69;;;15.46;100.00
41886;BME280;27567;43.084;25.616;2023-04-26T14:16:52;97228.66;;;15.64;100.00
41886;BME280;27567;43.084;25.616;2023-04-26T14:19:36;97238.84;;;15.57;100.00
41886;BME280;27567;43.084;25.616;2023-04-26T14:22:20;97244.59;;;15.66;100.00
41886;BME280;27567;43.084;25.616;2023-04-26T14:25:05;97251.88;;;15.70;100.00
41886;BME280;27567;43.084;25.616;2023-04-26T14:27:49;97241.09;;;15.70;100.00
41886;BME280;27567;43.084;25.616;2023-04-26T14:30:33;97245.22;;;15.83;100.00
41886;BME280;27567;43.084;25.616;2023-04-26T14:33:17;97241.91;;;15.71;100.00
41886;BME280;27567;43.084;25.616;2023-04-26T14:36:01;97259.00;;;16.40;100.00